Time;durP1;ratioP1;P1;durP2;ratioP2;P2;SDS_P1;SDS_P2;PMS_P1;PMS_P2;Temp;Humidity;BMP_temperature;BMP_pressure;BME280_temperature;BME280_humidity;BME280_pressure;Samples;Min_cycle;Max_cycle;Signal;HPM_P1;HPM_P2
2022/11/30 00:00:15;;;;;;;23.90;15.37;;;5.60;82.10;;;;;;5013804;28;20157;-74
2022/11/30 00:02:41;;;;;;;24.93;16.00;;;5.60;81.20;;;;;;5013869;28;20045;-73
2022/11/30 00:05:07;;;;;;;22.77;15.80;;;5.60;81.60;;;;;;5013840;28;20038;-73
2022/11/30 00:07:33;;;;;;;20.53;14.33;;;5.60;82.60;;;;;;5013662;28;20113;-74
2022/11/30 00:09:58;;;;;;;19.07;14.03;;;5.60;82.90;;;;;;5013765;28;20069;-74
2022/11/30 00:12:24;;;;;;;19.70;14.17;;;5.60;83.00;;;;;;5013442;28;20548;-74
2022/11/30 00:14:50;;;;;;;22.37;15.13;;;5.60;82.70;;;;;;5013700;28;20034;-73
2022/11/30 00:17:16;;;;;;;24.20;16.90;;;5.50;82.60;;;;;;5013514;28;20069;-74
2022/11/30 00:19:42;;;;;;;22.93;15.07;;;5.60;82.50;;;;;;5013698;28;20034;-73
2022/11/30 00:22:08;;;;;;;22.10;15.83;;;5.50;82.80;;;;;;5013205;28;20552;-74
2022/11/30 00:24:33;;;;;;;25.00;17.13;;;5.50;83.10;;;;;;5012793;28;20133;-74
2022/11/30 00:26:59;;;;;;;24.57;17.27;;;5.60;82.50;;;;;;5013501;28;20034;-73
2022/11/30 00:29:25;;;;;;;23.77;16.13;;;5.50;82.50;;;;;;5013079;28;20443;-74
2022/11/30 00:31:50;;;;;;;22.63;15.27;;;5.50;82.80;;;;;;5012943;28;20044;-75
2022/11/30 00:34:16;;;;;;;23.13;15.53;;;5.50;83.00;;;;;;5013383;28;20042;-74
2022/11/30 00:36:41;;;;;;;22.63;14.93;;;5.50;83.20;;;;;;5013336;28;20022;-73
2022/11/30 00:39:07;;;;;;;22.47;15.93;;;5.50;83.90;;;;;;5013197;28;20034;-73
2022/11/30 00:41:33;;;;;;;22.20;15.47;;;5.50;83.40;;;;;;5013278;28;20129;-74
2022/11/30 00:43:59;;;;;;;21.70;15.03;;;5.40;82.90;;;;;;5013052;28;20038;-73
2022/11/30 00:46:24;;;;;;;20.93;13.97;;;5.40;83.30;;;;;;5013341;28;20038;-74
2022/11/30 00:48:50;;;;;;;23.23;14.20;;;5.40;83.20;;;;;;5013357;28;20042;-73
2022/11/30 00:51:17;;;;;;;24.97;14.77;;;5.40;83.40;;;;;;5012845;28;20049;-73
2022/11/30 00:53:43;;;;;;;20.13;13.90;;;5.40;83.40;;;;;;5012959;28;20042;-74
2022/11/30 00:56:09;;;;;;;19.17;13.33;;;5.40;83.40;;;;;;5013206;28;20128;-73
2022/11/30 00:58:34;;;;;;;21.83;13.93;;;5.30;83.20;;;;;;5012913;28;20042;-73
2022/11/30 01:01:00;;;;;;;19.13;13.40;;;5.40;83.20;;;;;;5013103;28;20450;-74
2022/11/30 01:03:26;;;;;;;20.27;13.67;;;5.40;83.10;;;;;;5012979;28;20038;-74
2022/11/30 01:05:51;;;;;;;19.63;13.43;;;5.50;82.70;;;;;;5012909;28;20034;-73
2022/11/30 01:08:17;;;;;;;18.70;13.47;;;5.50;82.40;;;;;;4995654;28;20104;-73
2022/11/30 01:10:43;;;;;;;19.43;13.27;;;5.50;82.80;;;;;;5012940;28;20401;-73
2022/11/30 01:13:13;;;;;;;20.70;12.63;;;5.60;85.00;;;;;;4994976;28;20413;-74
2022/11/30 01:15:42;;;;;;;17.07;12.50;;;5.60;85.40;;;;;;5012805;28;20034;-74
2022/11/30 01:18:08;;;;;;;20.23;13.07;;;5.60;85.40;;;;;;5012932;28;20038;-73
2022/11/30 01:20:34;;;;;;;20.23;13.80;;;5.60;84.90;;;;;;5012847;28;20034;-73
2022/11/30 01:23:00;;;;;;;19.80;13.10;;;5.60;84.70;;;;;;5022911;28;20045;-74
2022/11/30 01:25:26;;;;;;;18.00;13.10;;;5.60;85.60;;;;;;5032656;28;20065;-73
2022/11/30 01:27:51;;;;;;;16.60;12.90;;;5.60;85.70;;;;;;5032148;28;20092;-73
2022/11/30 01:30:17;;;;;;;20.00;13.53;;;5.60;85.60;;;;;;5032547;28;20033;-74
2022/11/30 01:32:43;;;;;;;18.60;13.23;;;5.60;86.20;;;;;;5032622;28;20050;-74
2022/11/30 01:35:09;;;;;;;18.40;12.27;;;5.70;85.90;;;;;;5032580;28;20036;-74
2022/11/30 01:37:35;;;;;;;19.33;13.10;;;5.70;85.60;;;;;;5036325;28;20033;-73
2022/11/30 01:40:01;;;;;;;18.60;12.97;;;5.70;85.00;;;;;;5036144;28;20048;-73
2022/11/30 01:42:27;;;;;;;17.03;12.53;;;5.70;84.90;;;;;;5026920;28;20044;-74
2022/11/30 01:45:00;;;;;;;18.10;12.60;;;5.70;85.60;;;;;;5016486;28;20034;-74
2022/11/30 01:47:35;;;;;;;18.37;12.17;;;5.70;85.20;;;;;;5016206;28;20043;-73
2022/11/30 01:50:12;;;;;;;17.87;13.00;;;5.80;85.00;;;;;;5016250;28;20121;-73
2022/11/30 01:52:45;;;;;;;16.93;12.03;;;5.80;85.50;;;;;;5015962;28;20069;-74
2022/11/30 01:55:38;;;;;;;19.77;13.93;;;5.80;85.40;;;;;;5015804;28;20127;-73
2022/11/30 01:58:11;;;;;;;18.20;12.70;;;5.80;85.20;;;;;;5014632;28;20046;-74
2022/11/30 02:00:37;;;;;;;17.50;12.70;;;5.80;86.30;;;;;;5013294;28;20495;-74
2022/11/30 02:03:15;;;;;;;17.43;12.10;;;5.80;84.80;;;;;;5012935;28;20451;-74
2022/11/30 02:05:41;;;;;;;18.70;12.70;;;5.90;85.60;;;;;;5015252;28;20046;-73
2022/11/30 02:08:09;;;;;;;18.10;12.17;;;5.90;85.40;;;;;;5015569;28;20042;-73
2022/11/30 02:10:39;;;;;;;17.80;12.47;;;5.80;85.70;;;;;;5015562;28;20041;-73
2022/11/30 02:13:14;;;;;;;17.10;12.10;;;5.80;85.80;;;;;;5015424;28;20079;-73
2022/11/30 02:16:22;;;;;;;19.23;12.20;;;5.80;86.10;;;;;;5015542;28;20034;-74
2022/11/30 02:19:17;;;;;;;16.93;12.07;;;5.80;86.00;;;;;;5015507;28;20122;-74
2022/11/30 02:21:50;;;;;;;16.60;12.10;;;5.80;85.90;;;;;;5015103;28;20049;-74
2022/11/30 02:24:24;;;;;;;19.13;13.20;;;5.80;86.00;;;;;;5015491;28;20104;-74
2022/11/30 02:26:56;;;;;;;20.60;12.93;;;5.80;86.10;;;;;;5015193;28;20104;-74
2022/11/30 02:29:29;;;;;;;18.73;11.97;;;5.80;85.80;;;;;;5015217;28;20033;-74
2022/11/30 02:32:13;;;;;;;;;;;5.80;85.90;;;;;;5015588;28;20038;-74
2022/11/30 02:34:42;;;;;;;18.27;11.80;;;5.80;85.90;;;;;;5015278;28;19932;-73
2022/11/30 02:37:10;;;;;;;16.60;11.60;;;5.80;85.80;;;;;;5015152;28;20042;-73
2022/11/30 02:39:36;;;;;;;16.53;11.73;;;5.80;85.80;;;;;;4997540;28;20069;-74
2022/11/30 02:42:01;;;;;;;17.47;11.13;;;5.80;86.30;;;;;;5015215;28;20472;-74
2022/11/30 02:44:27;;;;;;;18.83;12.13;;;5.80;86.40;;;;;;5014708;28;20085;-71
2022/11/30 02:47:17;;;;;;;18.10;12.93;;;5.80;86.80;;;;;;5014766;28;20498;-71
2022/11/30 02:50:07;;;;;;;16.77;11.40;;;5.80;86.90;;;;;;5015116;28;20508;-74
2022/11/30 02:52:34;;;;;;;18.77;11.97;;;5.80;87.00;;;;;;5015244;28;20050;-74
2022/11/30 02:55:10;;;;;;;21.67;11.63;;;5.70;86.90;;;;;;5014818;28;20113;-74
2022/11/30 02:57:36;;;;;;;19.37;12.97;;;5.80;87.50;;;;;;5014825;28;20099;-74
2022/11/30 03:00:05;;;;;;;18.27;12.53;;;5.80;87.80;;;;;;4997305;28;20427;-73
2022/11/30 03:02:32;;;;;;;17.37;12.40;;;5.70;87.00;;;;;;5014842;28;20061;-74
2022/11/30 03:04:57;;;;;;;17.03;11.80;;;5.70;87.20;;;;;;5014535;28;20044;-74
2022/11/30 03:07:23;;;;;;;22.10;13.33;;;5.70;88.00;;;;;;5014601;28;20496;-73
2022/11/30 03:09:49;;;;;;;19.07;13.07;;;5.70;88.30;;;;;;5014689;28;20034;-74
2022/11/30 03:12:14;;;;;;;18.30;13.13;;;5.70;87.70;;;;;;5014532;28;20107;-74
2022/11/30 03:14:40;;;;;;;18.37;12.67;;;5.70;88.20;;;;;;5014577;28;20041;-74
2022/11/30 03:17:06;;;;;;;19.43;13.73;;;5.60;88.70;;;;;;5014625;28;20066;-74
2022/11/30 03:19:32;;;;;;;16.93;12.67;;;5.60;88.20;;;;;;5014437;28;20153;-74
2022/11/30 03:21:58;;;;;;;17.30;12.73;;;5.60;88.50;;;;;;5014005;28;20034;-74
2022/11/30 03:24:24;;;;;;;19.67;12.87;;;5.50;89.10;;;;;;5014372;28;20068;-73
2022/11/30 03:26:50;;;;;;;18.83;12.83;;;5.50;89.10;;;;;;5014748;28;20484;-74
2022/11/30 03:29:16;;;;;;;18.53;12.67;;;5.50;88.50;;;;;;5014221;28;20037;-74
2022/11/30 03:31:42;;;;;;;16.53;12.23;;;5.40;87.60;;;;;;5014176;28;20112;-73
2022/11/30 03:34:08;;;;;;;17.40;12.27;;;5.40;88.40;;;;;;5014455;28;20169;-73
2022/11/30 03:36:34;;;;;;;16.93;11.27;;;5.40;88.10;;;;;;5014228;28;20026;-73
2022/11/30 03:38:59;;;;;;;16.20;10.73;;;5.40;87.40;;;;;;5013661;28;20061;-73
2022/11/30 03:41:25;;;;;;;15.13;10.67;;;5.40;87.70;;;;;;5013413;28;20045;-73
2022/11/30 03:43:51;;;;;;;18.40;12.00;;;5.40;87.40;;;;;;5013972;28;20109;-74
2022/11/30 03:46:16;;;;;;;18.17;11.47;;;5.40;87.50;;;;;;5014081;28;20030;-74
2022/11/30 03:48:42;;;;;;;17.70;12.17;;;5.40;88.00;;;;;;5014208;28;20500;-73
2022/11/30 03:51:09;;;;;;;20.27;13.23;;;5.40;88.10;;;;;;5013933;28;20109;-74
2022/11/30 03:53:36;;;;;;;17.20;12.40;;;5.40;88.50;;;;;;5013812;28;20045;-74
2022/11/30 03:56:05;;;;;;;18.60;12.37;;;5.40;87.90;;;;;;5014029;28;20034;-73
2022/11/30 03:58:31;;;;;;;17.30;12.17;;;5.30;88.10;;;;;;5013618;28;20388;-73
2022/11/30 04:01:02;;;;;;;16.20;12.53;;;5.30;89.20;;;;;;5013137;28;20026;-74
2022/11/30 04:03:28;;;;;;;17.93;12.40;;;5.30;88.70;;;;;;5013830;28;20092;-74
2022/11/30 04:05:55;;;;;;;18.90;12.77;;;5.30;88.60;;;;;;5013484;28;20033;-74
2022/11/30 04:08:21;;;;;;;19.27;12.13;;;5.30;88.40;;;;;;4995894;28;20034;-74
2022/11/30 04:10:50;;;;;;;18.57;12.57;;;5.20;88.40;;;;;;5013702;28;20034;-74
2022/11/30 04:13:17;;;;;;;16.67;11.30;;;5.20;88.20;;;;;;5013501;28;20526;-74
2022/11/30 04:15:42;;;;;;;16.93;11.90;;;5.20;88.60;;;;;;5013577;28;20030;-74
2022/11/30 04:18:08;;;;;;;17.80;12.00;;;5.30;88.90;;;;;;5013476;28;20041;-74
2022/11/30 04:20:34;;;;;;;17.33;11.60;;;5.30;89.30;;;;;;5013151;28;20113;-74
2022/11/30 04:22:59;;;;;;;18.13;11.50;;;5.30;89.20;;;;;;5013201;28;20052;-74
2022/11/30 04:25:25;;;;;;;14.67;10.77;;;5.30;88.20;;;;;;5013346;28;20034;-74
2022/11/30 04:27:51;;;;;;;15.37;10.87;;;5.30;88.10;;;;;;5013409;28;20038;-73
2022/11/30 04:30:16;;;;;;;17.87;11.33;;;5.30;88.30;;;;;;5013098;28;20044;-74
2022/11/30 04:32:42;;;;;;;16.83;11.47;;;5.30;88.10;;;;;;5013224;28;20115;-73
2022/11/30 04:35:09;;;;;;;15.70;10.60;;;5.40;88.30;;;;;;5012989;28;20038;-73
2022/11/30 04:37:35;;;;;;;18.03;12.03;;;5.40;87.80;;;;;;5013362;28;20040;-73
2022/11/30 04:40:01;;;;;;;16.03;11.73;;;5.40;87.60;;;;;;5013159;28;20025;-73
2022/11/30 04:42:27;;;;;;;16.17;11.27;;;5.30;88.10;;;;;;5013336;28;20052;-74
2022/11/30 04:44:52;;;;;;;16.67;11.90;;;5.30;87.70;;;;;;5013310;28;20064;-73
2022/11/30 04:47:18;;;;;;;17.00;11.80;;;5.30;87.40;;;;;;5012620;28;20044;-74
2022/11/30 04:49:44;;;;;;;16.53;10.50;;;5.30;88.00;;;;;;5012986;28;20092;-74
2022/11/30 04:52:09;;;;;;;17.23;11.60;;;5.30;87.70;;;;;;5013137;28;20038;-74
2022/11/30 04:54:35;;;;;;;16.50;11.03;;;5.30;87.80;;;;;;5012946;28;20133;-74
2022/11/30 04:57:01;;;;;;;24.97;12.20;;;5.30;87.70;;;;;;5012985;28;20161;-74
2022/11/30 04:59:26;;;;;;;17.07;11.67;;;5.30;87.30;;;;;;5013178;28;20400;-73
2022/11/30 05:01:53;;;;;;;16.97;11.90;;;5.30;86.60;;;;;;4995501;28;20181;-74
2022/11/30 05:04:18;;;;;;;18.27;12.50;;;5.30;86.80;;;;;;5012911;28;20090;-74
2022/11/30 05:06:44;;;;;;;18.80;13.00;;;5.20;87.70;;;;;;5013012;28;20038;-74
2022/11/30 05:09:10;;;;;;;16.40;11.37;;;5.20;88.30;;;;;;5012892;28;20030;-74
2022/11/30 05:11:35;;;;;;;17.83;12.57;;;5.20;87.90;;;;;;5015429;28;20069;-74
2022/11/30 05:14:01;;;;;;;19.90;12.23;;;5.20;87.90;;;;;;5016890;28;20033;-74
2022/11/30 05:16:27;;;;;;;18.40;13.27;;;5.10;87.70;;;;;;5016868;28;20030;-74
2022/11/30 05:18:53;;;;;;;18.77;13.00;;;5.10;87.40;;;;;;5017048;28;20496;-73
2022/11/30 05:21:18;;;;;;;18.97;12.27;;;5.10;87.70;;;;;;5016794;28;20105;-73
2022/11/30 05:23:45;;;;;;;15.57;11.33;;;5.00;88.10;;;;;;5016813;28;20057;-73
2022/11/30 05:26:11;;;;;;;16.17;11.80;;;5.00;88.60;;;;;;5016754;28;20112;-74
2022/11/30 05:28:37;;;;;;;16.27;11.23;;;5.00;88.80;;;;;;5016594;28;20496;-74
2022/11/30 05:31:04;;;;;;;15.83;11.03;;;5.00;88.40;;;;;;5016719;28;20034;-73
2022/11/30 05:33:29;;;;;;;16.20;10.67;;;5.00;88.30;;;;;;5015989;28;20408;-73
2022/11/30 05:35:55;;;;;;;15.67;10.23;;;4.90;87.90;;;;;;5016436;28;20045;-74
2022/11/30 05:38:21;;;;;;;15.53;10.57;;;4.90;88.10;;;;;;5016574;28;20121;-74
2022/11/30 05:40:46;;;;;;;17.07;11.60;;;4.90;87.90;;;;;;5016391;28;20040;-74
2022/11/30 05:43:12;;;;;;;19.63;11.63;;;4.90;88.20;;;;;;5016579;28;20044;-75
2022/11/30 05:45:38;;;;;;;15.43;10.53;;;4.90;88.60;;;;;;5016106;28;20038;-74
2022/11/30 05:48:04;;;;;;;19.03;11.60;;;4.90;88.70;;;;;;5015952;28;20030;-73
2022/11/30 05:50:30;;;;;;;18.70;11.23;;;4.90;88.40;;;;;;5016058;28;20041;-73
2022/11/30 05:52:56;;;;;;;19.17;12.30;;;4.90;88.50;;;;;;5016406;28;20053;-73
2022/11/30 05:55:23;;;;;;;19.57;12.03;;;4.80;88.80;;;;;;5016340;28;20026;-73
2022/11/30 05:57:48;;;;;;;17.00;11.83;;;4.80;88.80;;;;;;5016029;28;20598;-74
2022/11/30 06:00:15;;;;;;;16.07;11.20;;;4.80;89.00;;;;;;4998390;28;20125;-73
2022/11/30 06:02:40;;;;;;;17.27;11.60;;;4.80;89.10;;;;;;4997950;28;20488;-74
2022/11/30 06:05:06;;;;;;;18.63;11.43;;;4.80;89.10;;;;;;5015965;28;20034;-74
2022/11/30 06:07:32;;;;;;;20.67;11.53;;;4.80;89.00;;;;;;5016042;28;20072;-74
2022/11/30 06:09:58;;;;;;;18.07;11.10;;;4.90;89.40;;;;;;5015759;28;20034;-73
2022/11/30 06:12:23;;;;;;;19.60;11.77;;;4.90;89.20;;;;;;5015501;28;20069;-73
2022/11/30 06:14:52;;;;;;;17.33;12.00;;;5.00;89.10;;;;;;5015630;28;20399;-73
2022/11/30 06:17:18;;;;;;;18.03;11.77;;;4.90;88.90;;;;;;5015592;28;20029;-74
2022/11/30 06:19:43;;;;;;;18.43;12.37;;;5.00;88.70;;;;;;5015786;28;20036;-73
2022/11/30 06:22:09;;;;;;;18.57;11.17;;;4.90;88.80;;;;;;5014436;28;20050;-74
2022/11/30 06:24:34;;;;;;;16.80;10.90;;;5.00;89.10;;;;;;5015379;28;20061;-74
2022/11/30 06:27:00;;;;;;;17.97;11.97;;;5.00;88.70;;;;;;5015537;28;20041;-75
2022/11/30 06:29:26;;;;;;;18.47;11.43;;;5.00;88.60;;;;;;5015453;28;20036;-73
2022/11/30 06:31:51;;;;;;;14.27;10.53;;;5.00;87.40;;;;;;5014972;28;20157;-73
2022/11/30 06:34:17;;;;;;;18.17;10.97;;;5.00;87.40;;;;;;5015113;28;20042;-73
2022/11/30 06:36:43;;;;;;;16.40;11.13;;;4.90;87.50;;;;;;5014979;28;20080;-74
2022/11/30 06:39:11;;;;;;;22.57;13.77;;;5.00;87.90;;;;;;5015050;28;20045;-74
2022/11/30 06:41:37;;;;;;;24.03;12.60;;;4.90;87.50;;;;;;5014446;28;20022;-73
2022/11/30 06:44:09;;;;;;;18.80;11.77;;;5.00;87.70;;;;;;5014452;28;20393;-73
2022/11/30 06:46:35;;;;;;;21.20;11.85;;;5.00;87.60;;;;;;5014994;28;20488;-74
2022/11/30 06:49:01;;;;;;;20.10;11.97;;;5.00;89.50;;;;;;5015048;28;20039;-73
2022/11/30 06:51:27;;;;;;;22.83;12.23;;;5.00;89.10;;;;;;5014793;28;20464;-73
2022/11/30 06:53:53;;;;;;;19.80;11.77;;;5.00;88.90;;;;;;5014805;28;20042;-73
2022/11/30 06:56:19;;;;;;;23.93;12.70;;;5.10;89.00;;;;;;5015002;28;20030;-73
2022/11/30 06:58:44;;;;;;;18.80;11.93;;;5.10;89.90;;;;;;4996912;28;20455;-74
2022/11/30 07:01:12;;;;;;;17.17;11.97;;;5.10;89.70;;;;;;5013770;28;20037;-73
2022/11/30 07:03:39;;;;;;;18.33;12.27;;;5.10;89.50;;;;;;5013301;28;20038;-74
2022/11/30 07:06:10;;;;;;;23.77;13.17;;;5.10;88.60;;;;;;5014341;28;20038;-73
2022/11/30 07:08:36;;;;;;;24.07;12.20;;;5.20;87.50;;;;;;5014700;28;20447;-74
2022/11/30 07:11:02;;;;;;;27.67;16.90;;;5.10;87.00;;;;;;5014537;28;20041;-74
2022/11/30 07:13:28;;;;;;;42.60;27.37;;;5.20;87.30;;;;;;5014284;28;20050;-73
2022/11/30 07:15:55;;;;;;;39.77;22.80;;;5.20;87.30;;;;;;5014319;28;20041;-73
2022/11/30 07:18:21;;;;;;;31.10;18.93;;;5.20;87.40;;;;;;5014114;28;20092;-73
2022/11/30 07:20:46;;;;;;;25.83;18.33;;;5.20;87.40;;;;;;5014555;28;20034;-74
2022/11/30 07:26:06;;;;;;;31.17;16.40;;;5.30;87.30;;;;;;5014216;28;20518;-73
2022/11/30 07:28:40;;;;;;;28.10;17.73;;;5.30;88.70;;;;;;5014127;28;20041;-73
2022/11/30 07:31:19;;;;;;;32.27;18.97;;;5.40;88.70;;;;;;5014399;28;20091;-73
2022/11/30 07:33:45;;;;;;;28.20;16.87;;;5.30;88.90;;;;;;5014162;28;20208;-73
2022/11/30 07:36:11;;;;;;;22.07;12.73;;;5.40;89.20;;;;;;5014158;28;20038;-73
2022/11/30 07:38:38;;;;;;;20.00;12.43;;;5.40;88.40;;;;;;5013774;28;20400;-73
2022/11/30 07:41:04;;;;;;;27.60;17.23;;;5.40;87.10;;;;;;4996333;28;20034;-73
2022/11/30 07:43:30;;;;;;;28.37;17.50;;;5.40;87.00;;;;;;5014158;28;20424;-73
2022/11/30 07:45:55;;;;;;;28.53;15.47;;;5.50;87.10;;;;;;5014002;28;20033;-74
2022/11/30 07:48:21;;;;;;;26.40;11.90;;;5.50;87.70;;;;;;5013741;28;20041;-72
2022/11/30 07:50:48;;;;;;;17.00;10.97;;;5.50;87.40;;;;;;5013987;28;20034;-73
2022/11/30 07:53:14;;;;;;;17.37;10.50;;;5.60;87.60;;;;;;5013092;28;20046;-73
2022/11/30 07:55:41;;;;;;;17.10;9.77;;;5.60;87.50;;;;;;5013345;28;20029;-71
2022/11/30 07:58:08;;;;;;;18.83;10.00;;;5.60;87.10;;;;;;5013433;28;20500;-70
2022/11/30 08:00:35;;;;;;;16.90;10.30;;;5.70;86.90;;;;;;5013496;28;20026;-71
2022/11/30 08:03:00;;;;;;;14.47;10.53;;;5.70;86.80;;;;;;5013325;28;20042;-71
2022/11/30 08:05:26;;;;;;;24.27;15.87;;;5.70;86.70;;;;;;5013468;28;20492;-70
2022/11/30 08:07:55;;;;;;;19.63;12.40;;;5.80;86.70;;;;;;5013530;28;20076;-70
2022/11/30 08:10:22;;;;;;;19.60;11.10;;;5.80;86.50;;;;;;5013629;28;20117;-72
2022/11/30 08:12:48;;;;;;;18.63;10.83;;;5.80;86.50;;;;;;5013545;28;20137;-70
2022/11/30 08:15:14;;;;;;;16.37;11.00;;;5.80;86.30;;;;;;5013201;28;20108;-71
2022/11/30 08:17:40;;;;;;;17.80;10.17;;;5.90;86.50;;;;;;5013390;28;20060;-72
2022/11/30 08:20:08;;;;;;;16.13;10.07;;;5.90;86.80;;;;;;5013381;28;20026;-71
2022/11/30 08:22:34;;;;;;;15.83;10.10;;;6.00;86.60;;;;;;5013659;28;20057;-71
2022/11/30 08:25:00;;;;;;;20.27;10.07;;;6.00;86.40;;;;;;5013336;28;20034;-71
2022/11/30 08:27:26;;;;;;;17.43;10.20;;;6.10;86.70;;;;;;5013209;28;20481;-72
2022/11/30 08:29:51;;;;;;;14.73;10.37;;;6.10;87.00;;;;;;5013178;28;20503;-71
2022/11/30 08:32:17;;;;;;;13.03;9.17;;;6.10;86.30;;;;;;5012941;28;20038;-72
2022/11/30 08:34:43;;;;;;;20.03;12.77;;;6.10;86.40;;;;;;5012952;28;20040;-71
2022/11/30 08:37:08;;;;;;;17.90;11.10;;;6.10;86.50;;;;;;5013211;28;20125;-71
2022/11/30 08:39:34;;;;;;;20.77;10.67;;;6.10;86.20;;;;;;5013094;28;20473;-71
2022/11/30 08:42:01;;;;;;;16.63;10.63;;;6.20;86.70;;;;;;5012184;28;20084;-72
2022/11/30 08:44:27;;;;;;;15.83;9.80;;;6.20;86.60;;;;;;5011876;28;20116;-71
2022/11/30 08:46:53;;;;;;;21.93;9.13;;;6.20;86.40;;;;;;5011284;28;20089;-74
2022/11/30 08:49:20;;;;;;;18.30;9.80;;;6.20;86.50;;;;;;5012796;28;20030;-72
2022/11/30 08:51:47;;;;;;;20.50;10.63;;;6.30;86.20;;;;;;5013173;28;20116;-75
2022/11/30 08:54:12;;;;;;;20.20;9.37;;;6.30;86.50;;;;;;5012710;28;20054;-71
2022/11/30 08:56:38;;;;;;;21.07;10.03;;;6.30;86.20;;;;;;5012433;28;20026;-72
2022/11/30 08:59:04;;;;;;;19.27;10.97;;;6.30;85.90;;;;;;5012676;28;20503;-72
2022/11/30 09:01:30;;;;;;;14.87;10.00;;;6.40;85.90;;;;;;5013096;28;20538;-71
2022/11/30 09:03:56;;;;;;;16.03;11.60;;;6.40;85.70;;;;;;5012951;28;20042;-76
2022/11/30 09:06:28;;;;;;;17.33;10.83;;;6.40;85.40;;;;;;5013024;28;20384;-71
2022/11/30 09:08:56;;;;;;;15.35;10.55;;;6.50;85.40;;;;;;5012910;28;20445;-71
2022/11/30 09:11:24;;;;;;;13.40;9.70;;;6.50;85.70;;;;;;5012831;28;20034;-72
2022/11/30 09:13:51;;;;;;;16.63;12.33;;;6.60;86.20;;;;;;5013129;28;20104;-76
2022/11/30 09:16:18;;;;;;;21.00;8.70;;;6.60;86.10;;;;;;5012928;28;20031;-71
2022/11/30 09:18:45;;;;;;;14.67;9.60;;;6.60;86.00;;;;;;5012691;28;20045;-72
2022/11/30 09:21:13;;;;;;;13.30;7.90;;;6.70;85.80;;;;;;5012883;28;20092;-71
2022/11/30 09:23:39;;;;;;;12.20;7.80;;;6.80;85.40;;;;;;5012680;28;20404;-72
2022/11/30 09:26:08;;;;;;;11.43;7.73;;;6.80;85.20;;;;;;4995310;28;20100;-75
2022/11/30 09:28:34;;;;;;;15.40;8.87;;;6.90;84.80;;;;;;5012835;28;20049;-71
2022/11/30 09:31:01;;;;;;;14.10;9.97;;;7.00;85.70;;;;;;5012377;28;20033;-71
2022/11/30 09:33:27;;;;;;;16.57;10.43;;;7.00;86.20;;;;;;5012456;28;20100;-71
2022/11/30 09:35:55;;;;;;;16.97;10.07;;;7.10;85.90;;;;;;5011924;28;20487;-71
2022/11/30 09:38:21;;;;;;;13.93;9.17;;;7.10;85.70;;;;;;5012463;28;20456;-73
2022/11/30 09:40:55;;;;;;;17.23;10.40;;;7.20;86.50;;;;;;5012538;28;20108;-72
2022/11/30 09:43:23;;;;;;;15.13;9.90;;;7.20;85.30;;;;;;4995296;28;20093;-72
2022/11/30 09:45:56;;;;;;;10.90;7.13;;;7.30;84.90;;;;;;5012475;28;20045;-72
2022/11/30 09:49:14;;;;;;;7.67;5.80;;;7.30;84.10;;;;;;5012203;28;20527;-72
2022/11/30 09:51:51;;;;;;;7.63;5.07;;;7.30;83.90;;;;;;4952105;29;20043;-72
2022/11/30 09:54:37;;;;;;;7.13;4.80;;;7.40;83.70;;;;;;4987383;28;20452;-74
2022/11/30 09:57:16;;;;;;;5.27;4.10;;;7.40;83.10;;;;;;5012872;28;20413;-74
2022/11/30 09:59:50;;;;;;;6.13;4.50;;;7.40;82.00;;;;;;5016124;28;20766;-72
2022/11/30 10:02:17;;;;;;;7.03;4.87;;;7.50;82.50;;;;;;5015984;28;20037;-71
2022/11/30 10:04:43;;;;;;;6.43;4.47;;;7.50;81.90;;;;;;5016288;28;20041;-71
2022/11/30 10:07:37;;;;;;;8.57;4.77;;;7.50;83.10;;;;;;5016106;28;20041;-74
2022/11/30 10:42:58;;;;;;;3.90;3.33;;;7.50;76.70;;;;;;5110060;27;20441;-70
2022/11/30 10:45:26;;;;;;;4.77;3.47;;;8.00;76.30;;;;;;5110509;28;20396;-70
2022/11/30 10:48:30;;;;;;;4.67;3.30;;;8.10;75.80;;;;;;5110778;28;20480;-69
2022/11/30 10:50:57;;;;;;;5.10;3.70;;;8.20;74.80;;;;;;5101156;28;20386;-69
2022/11/30 10:53:23;;;;;;;5.43;3.47;;;8.20;74.50;;;;;;5109098;28;20026;-70
2022/11/30 10:56:10;;;;;;;5.63;2.90;;;8.30;74.80;;;;;;5109760;28;20103;-70
2022/11/30 10:58:39;;;;;;;3.77;2.97;;;8.30;73.70;;;;;;5110486;28;20487;-70
2022/11/30 11:01:09;;;;;;;4.77;3.07;;;8.30;73.60;;;;;;5110328;28;20446;-71
2022/11/30 11:03:36;;;;;;;5.63;3.40;;;8.40;73.80;;;;;;5110184;28;20031;-70
2022/11/30 11:06:14;;;;;;;6.83;3.40;;;8.40;72.10;;;;;;5089707;28;20025;-70
2022/11/30 11:08:44;;;;;;;4.53;3.17;;;8.40;72.90;;;;;;5089800;28;20507;-70
2022/11/30 11:11:56;;;;;;;5.07;3.37;;;8.40;73.00;;;;;;5105252;28;20048;-70
2022/11/30 11:14:25;;;;;;;7.07;2.70;;;8.40;73.50;;;;;;5083453;28;20033;-71
2022/11/30 11:17:18;;;;;;;3.97;2.67;;;8.40;72.00;;;;;;5067266;28;20156;-71
2022/11/30 11:19:46;;;;;;;4.72;2.83;;;8.40;72.30;;;;;;5081227;28;20040;-70
2022/11/30 11:22:20;;;;;;;4.27;2.77;;;8.50;71.80;;;;;;5088286;28;20082;-70
2022/11/30 11:24:47;;;;;;;3.53;2.70;;;8.50;72.50;;;;;;5088811;28;20070;-70
2022/11/30 11:27:30;;;;;;;5.53;2.50;;;8.40;73.20;;;;;;5087590;28;20048;-69
2022/11/30 11:30:11;;;;;;;3.33;2.30;;;8.50;71.80;;;;;;5089177;28;20470;-70
2022/11/30 11:32:37;;;;;;;7.60;2.57;;;8.40;72.20;;;;;;5109023;28;20073;-69
2022/11/30 11:35:23;;;;;;;8.33;3.00;;;8.50;71.10;;;;;;5109243;28;20053;-70
2022/11/30 11:37:51;;;;;;;5.97;2.40;;;8.50;70.90;;;;;;5109375;28;20032;-69
2022/11/30 11:40:19;;;;;;;5.93;3.13;;;8.50;71.90;;;;;;5109437;28;20504;-69
2022/11/30 11:42:51;;;;;;;4.80;2.67;;;8.50;71.80;;;;;;5101200;28;20580;-69
2022/11/30 11:45:26;;;;;;;3.20;2.50;;;8.50;72.30;;;;;;5095934;28;20028;-70
2022/11/30 11:48:07;;;;;;;4.67;2.60;;;8.50;71.40;;;;;;5095809;28;20027;-69
2022/11/30 11:50:34;;;;;;;4.83;2.70;;;8.60;71.60;;;;;;5095599;28;20028;-69
2022/11/30 11:53:14;;;;;;;4.33;2.47;;;8.60;72.10;;;;;;5095483;28;20073;-68
2022/11/30 11:55:42;;;;;;;4.93;2.20;;;8.70;72.10;;;;;;5095498;28;20031;-68
2022/11/30 11:58:15;;;;;;;6.87;2.40;;;8.70;72.00;;;;;;5095021;28;20035;-70
2022/11/30 12:00:42;;;;;;;6.37;2.43;;;8.80;71.90;;;;;;5095507;28;20036;-68
2022/11/30 12:03:48;;;;;;;2.47;1.80;;;8.80;71.70;;;;;;5095673;28;20024;-68
2022/11/30 12:06:16;;;;;;;2.63;1.80;;;8.80;71.70;;;;;;5092894;28;20032;-69
2022/11/30 12:08:53;;;;;;;2.00;1.40;;;8.80;69.20;;;;;;5095118;28;20024;-68
2022/11/30 12:11:36;;;;;;;4.67;1.90;;;8.80;69.60;;;;;;5095268;28;20027;-68
2022/11/30 12:14:08;;;;;;;5.90;2.00;;;8.80;70.80;;;;;;5095157;28;20035;-68
2022/11/30 12:16:44;;;;;;;2.67;1.83;;;8.80;70.50;;;;;;5095332;28;20478;-69
2022/11/30 12:19:23;;;;;;;3.43;2.10;;;8.80;69.00;;;;;;5094995;28;20039;-69
2022/11/30 12:22:20;;;;;;;5.90;2.10;;;8.80;69.80;;;;;;5095129;28;20115;-68
2022/11/30 12:24:58;;;;;;;5.80;2.73;;;8.80;70.30;;;;;;5095106;28;20031;-69
2022/11/30 12:27:49;;;;;;;5.97;2.93;;;8.80;70.40;;;;;;5094937;28;20020;-69
2022/11/30 12:30:21;;;;;;;6.93;3.13;;;8.80;70.10;;;;;;5094941;28;20028;-69
2022/11/30 12:32:55;;;;;;;5.37;2.43;;;8.80;70.40;;;;;;5094891;28;20027;-69
2022/11/30 12:35:42;;;;;;;3.53;2.10;;;8.70;69.80;;;;;;5094763;28;20024;-69
2022/11/30 13:00:16;;;;;;;6.27;2.97;;;8.50;70.20;;;;;;5069474;28;20390;-70
2022/11/30 13:02:57;;;;;;;3.67;2.17;;;8.70;71.00;;;;;;5069656;28;20120;-74
2022/11/30 13:05:42;;;;;;;6.67;2.60;;;8.70;71.00;;;;;;5069923;28;20025;-72
2022/11/30 13:08:15;;;;;;;4.13;2.30;;;8.80;71.30;;;;;;5069815;28;20040;-76
2022/11/30 13:10:45;;;;;;;3.70;2.03;;;8.80;71.10;;;;;;5069588;28;20056;-71
2022/11/30 13:13:19;;;;;;;4.63;2.43;;;8.80;71.30;;;;;;5069905;28;20100;-75
2022/11/30 13:15:48;;;;;;;5.07;2.57;;;8.80;70.80;;;;;;5069710;28;20020;-75
2022/11/30 13:18:17;;;;;;;5.20;2.53;;;8.80;70.70;;;;;;5069377;28;20458;-73
2022/11/30 13:20:49;;;;;;;5.37;2.17;;;8.80;70.90;;;;;;5069626;28;20031;-72
2022/11/30 13:23:34;;;;;;;4.30;2.20;;;8.80;70.80;;;;;;5069274;28;20024;-71
2022/11/30 13:26:00;;;;;;;2.67;1.90;;;8.80;71.10;;;;;;5068157;28;20029;-71
2022/11/30 13:28:28;;;;;;;4.07;2.00;;;8.80;70.90;;;;;;5069521;28;20391;-70
2022/11/30 13:31:16;;;;;;;3.50;2.00;;;8.80;70.80;;;;;;5068172;28;20033;-70
2022/11/30 13:33:53;;;;;;;16.60;13.57;;;8.80;71.20;;;;;;5069112;28;20096;-75
2022/11/30 13:36:34;;;;;;;14.33;12.83;;;8.80;71.90;;;;;;5069140;28;20394;-70
2022/11/30 13:39:19;;;;;;;11.00;7.10;;;8.80;72.40;;;;;;5068907;28;20436;-75
2022/11/30 13:41:48;;;;;;;6.77;4.83;;;8.80;73.40;;;;;;5068847;28;20025;-72
2022/11/30 13:44:33;;;;;;;5.00;3.70;;;8.80;72.60;;;;;;5068534;28;20052;-76
2022/11/30 13:47:01;;;;;;;8.07;4.90;;;8.80;72.90;;;;;;5068655;28;20025;-71
2022/11/30 13:49:34;;;;;;;11.77;5.23;;;8.80;73.40;;;;;;5068728;28;20036;-75
2022/11/30 13:52:03;;;;;;;6.18;3.58;;;8.80;73.60;;;;;;5068768;28;20108;-73